createdAt,value
2022-09-27T00:02:10.022Z,99.85
2022-09-27T00:07:41.318Z,100.0
2022-09-27T00:13:13.054Z,100.0
2022-09-27T00:18:44.693Z,100.0
2022-09-27T00:24:16.497Z,100.0
2022-09-27T00:29:52.627Z,100.0
2022-09-27T00:35:24.413Z,100.0
2022-09-27T00:40:56.181Z,100.0
2022-09-27T00:46:28.042Z,100.0
2022-09-27T00:51:59.504Z,100.0
2022-09-27T00:57:31.246Z,100.0
2022-09-27T01:03:03.278Z,100.0
2022-09-27T01:08:37.406Z,100.0
2022-09-27T01:14:06.395Z,100.0
2022-09-27T01:19:38.173Z,100.0
2022-09-27T01:25:09.897Z,100.0
2022-09-27T01:30:48.212Z,100.0
2022-09-27T01:36:19.760Z,100.0
2022-09-27T01:41:51.452Z,100.0
2022-09-27T01:47:23.148Z,100.0
2022-09-27T01:52:54.878Z,100.0
2022-09-27T01:58:26.674Z,100.0
2022-09-27T02:03:58.338Z,100.0
2022-09-27T02:09:30.076Z,100.0
2022-09-27T02:15:01.817Z,100.0
2022-09-27T02:20:33.505Z,100.0
2022-09-27T02:26:05.221Z,100.0
2022-09-27T02:31:41.325Z,100.0
2022-09-27T02:37:13.083Z,100.0
2022-09-27T02:42:44.794Z,100.0
2022-09-27T02:48:16.593Z,100.0
2022-09-27T02:53:48.354Z,100.0
2022-09-27T02:59:19.941Z,100.0
2022-09-27T03:04:51.666Z,100.0
2022-09-27T03:10:23.397Z,100.0
2022-09-27T03:16:01.536Z,100.0
2022-09-27T03:21:26.803Z,100.0
2022-09-27T03:26:58.557Z,100.0
2022-09-27T03:32:34.665Z,100.0
2022-09-27T03:38:06.370Z,100.0
2022-09-27T03:43:38.253Z,100.0
2022-09-27T03:49:09.838Z,100.0
2022-09-27T03:54:41.593Z,100.0
2022-09-27T04:00:13.300Z,100.0
2022-09-27T04:05:45.049Z,100.0
2022-09-27T04:11:16.817Z,100.0
2022-09-27T04:16:48.758Z,100.0
2022-09-27T04:22:20.205Z,100.0
2022-09-27T04:27:51.928Z,100.0
2022-09-27T04:33:28.046Z,100.0
2022-09-27T04:38:59.785Z,100.0
2022-09-27T04:44:33.197Z,100.0
2022-09-27T04:50:04.938Z,100.0
2022-09-27T04:55:36.642Z,100.0
2022-09-27T05:01:08.443Z,100.0
2022-09-27T05:06:40.154Z,100.0
2022-09-27T05:12:11.837Z,100.0
2022-09-27T05:17:43.551Z,100.0
2022-09-27T05:23:15.245Z,100.0
2022-09-27T05:28:47.013Z,100.0
2022-09-27T05:34:23.094Z,100.0
2022-09-27T05:39:54.858Z,100.0
2022-09-27T05:45:26.538Z,100.0
2022-09-27T05:50:58.279Z,100.0
2022-09-27T05:56:29.957Z,100.0
2022-09-27T06:02:01.790Z,100.0
2022-09-27T06:07:33.439Z,100.0
2022-09-27T06:13:05.163Z,100.0
2022-09-27T06:18:36.971Z,100.0
2022-09-27T06:24:08.747Z,100.0
2022-09-27T06:29:40.656Z,100.0
2022-09-27T06:35:18.461Z,100.0
2022-09-27T06:40:50.322Z,100.0
2022-09-27T06:46:22.098Z,100.0
2022-09-27T06:51:53.655Z,100.0
2022-09-27T06:57:25.433Z,100.0
2022-09-27T07:02:57.133Z,100.0
2022-09-27T07:08:28.946Z,100.0
2022-09-27T07:14:00.530Z,100.0
2022-09-27T07:19:32.346Z,100.0
2022-09-27T07:25:04.157Z,100.0
2022-09-27T07:30:35.814Z,100.0
2022-09-27T07:36:11.976Z,100.0
2022-09-27T07:41:43.618Z,100.0
2022-09-27T07:47:15.318Z,100.0
2022-09-27T07:52:47.038Z,100.0
2022-09-27T07:58:18.726Z,100.0
2022-09-27T08:03:50.489Z,100.0
2022-09-27T08:09:22.141Z,100.0
2022-09-27T08:14:54.048Z,99.9
2022-09-27T08:20:25.829Z,100.0
2022-09-27T08:25:57.480Z,99.38
2022-09-27T08:31:29.275Z,99.86
2022-09-27T08:37:05.138Z,97.58
2022-09-27T08:42:36.848Z,95.6
2022-09-27T08:48:08.801Z,95.99
2022-09-27T08:53:40.364Z,96.35
2022-09-27T08:59:12.301Z,96.16
2022-09-27T09:04:43.833Z,96.55
2022-09-27T09:10:15.540Z,97.56
2022-09-27T09:15:47.260Z,96.16
2022-09-27T09:21:18.981Z,96.57
2022-09-27T09:26:50.732Z,96.08
2022-09-27T09:32:22.410Z,96.15
2022-09-27T09:37:58.564Z,91.81
2022-09-27T09:43:30.326Z,92.68
2022-09-27T09:49:01.964Z,89.59
2022-09-27T09:54:33.893Z,90.13
2022-09-27T10:00:05.449Z,87.78
2022-09-27T10:05:37.298Z,87.09
2022-09-27T10:11:08.891Z,85.87
2022-09-27T10:16:40.621Z,84.89
2022-09-27T10:22:12.357Z,86.17
2022-09-27T10:27:44.164Z,85.79
2022-09-27T10:33:15.828Z,83.95
2022-09-27T10:38:51.968Z,84.47
2022-09-27T10:44:23.696Z,86.81
2022-09-27T10:49:55.371Z,87.72
2022-09-27T10:55:27.113Z,87.31
2022-09-27T11:00:59.073Z,87.55
2022-09-27T11:06:30.573Z,87.94
2022-09-27T11:12:02.270Z,89.13
2022-09-27T11:17:33.990Z,88.24
2022-09-27T11:23:05.726Z,88.0
2022-09-27T11:28:37.811Z,85.1
2022-09-27T11:34:09.975Z,85.0
2022-09-27T11:39:47.330Z,85.8
2022-09-27T11:45:56.826Z,87.78
2022-09-27T11:50:50.698Z,96.46
2022-09-27T11:56:22.409Z,98.02
2022-09-27T12:01:54.202Z,100.0
2022-09-27T12:07:25.924Z,100.0
2022-09-27T12:12:57.601Z,100.0
2022-09-27T12:18:29.334Z,100.0
2022-09-27T12:24:01.168Z,100.0
2022-09-27T12:29:32.803Z,100.0
2022-09-27T12:35:04.550Z,100.0
2022-09-27T12:40:40.739Z,100.0
2022-09-27T12:46:12.456Z,100.0
2022-09-27T12:51:44.110Z,100.0
2022-09-27T12:57:18.489Z,100.0
2022-09-27T13:03:15.603Z,100.0
2022-09-27T13:08:19.224Z,100.0
2022-09-27T13:13:50.939Z,100.0
2022-09-27T13:19:27.414Z,100.0
2022-09-27T13:24:54.408Z,100.0
2022-09-27T13:30:26.175Z,100.0
2022-09-27T13:35:58.019Z,100.0
2022-09-27T13:41:34.065Z,100.0
2022-09-27T13:47:05.813Z,100.0
2022-09-27T13:52:37.506Z,100.0
2022-09-27T13:58:09.276Z,100.0
2022-09-27T14:03:40.917Z,100.0
2022-09-27T14:09:13.006Z,100.0
2022-09-27T14:14:44.600Z,100.0
2022-09-27T14:20:16.211Z,100.0
2022-09-27T14:25:47.919Z,100.0
2022-09-27T14:31:20.025Z,100.0
2022-09-27T14:36:51.348Z,100.0
2022-09-27T14:42:29.498Z,100.0
2022-09-27T14:48:01.242Z,100.0
2022-09-27T14:53:32.955Z,100.0
2022-09-27T14:59:04.781Z,100.0
2022-09-27T15:04:36.699Z,100.0
2022-09-27T15:10:08.215Z,100.0
2022-09-27T15:15:40.305Z,100.0
2022-09-27T15:21:11.586Z,100.0
2022-09-27T15:26:43.273Z,100.0
2022-09-27T15:32:15.025Z,100.0
2022-09-27T15:37:46.857Z,100.0
2022-09-27T15:43:25.038Z,98.39
2022-09-27T15:48:56.703Z,98.92
2022-09-27T15:54:28.392Z,99.82
2022-09-27T16:00:00.145Z,98.68
2022-09-27T16:05:31.859Z,98.91
2022-09-27T16:11:03.595Z,98.92
2022-09-27T16:16:35.301Z,96.83
2022-09-27T16:22:07.046Z,96.32
2022-09-27T16:27:38.809Z,94.69
2022-09-27T16:33:10.539Z,95.0
2022-09-27T16:38:42.334Z,94.63
2022-09-27T16:44:22.235Z,95.91
2022-09-27T16:49:54.017Z,94.35
2022-09-27T16:55:25.739Z,91.91
2022-09-27T17:00:57.595Z,93.6
2022-09-27T17:06:29.119Z,93.92
2022-09-27T17:12:01.045Z,94.04
2022-09-27T17:17:32.686Z,93.44
2022-09-27T17:23:04.374Z,94.66
2022-09-27T17:28:36.165Z,96.58
2022-09-27T17:34:07.901Z,97.84
2022-09-27T17:39:39.542Z,97.44
2022-09-27T17:45:15.662Z,96.58
2022-09-27T17:50:47.382Z,96.16
2022-09-27T17:56:19.279Z,95.71
2022-09-27T18:01:51.174Z,95.82
2022-09-27T18:07:22.501Z,94.77
2022-09-27T18:12:54.237Z,94.59
2022-09-27T18:18:25.961Z,93.71
2022-09-27T18:23:57.718Z,94.09
2022-09-27T18:29:29.484Z,93.51
2022-09-27T18:35:01.157Z,94.74
2022-09-27T18:40:56.411Z,94.64
2022-09-27T18:46:36.134Z,94.53
2022-09-27T18:51:40.766Z,93.52
2022-09-27T18:57:12.463Z,93.19
2022-09-27T19:02:44.225Z,93.44
2022-09-27T19:08:15.981Z,94.13
2022-09-27T19:13:51.862Z,93.37
2022-09-27T19:19:19.630Z,93.09
2022-09-27T19:24:51.146Z,93.79
2022-09-27T19:30:22.882Z,93.38
2022-09-27T19:35:54.628Z,93.4
2022-09-27T19:41:26.365Z,93.0
2022-09-27T19:47:02.637Z,93.25
2022-09-27T19:52:34.225Z,94.64
2022-09-27T19:58:05.913Z,92.13
2022-09-27T20:03:37.642Z,92.2
2022-09-27T20:09:09.321Z,91.86
2022-09-27T20:14:41.418Z,92.86
2022-09-27T20:20:12.803Z,93.87
2022-09-27T20:25:44.566Z,93.21
2022-09-27T20:31:16.257Z,94.01
2022-09-27T20:36:47.942Z,94.33
2022-09-27T20:42:19.675Z,94.17
2022-09-27T20:47:55.761Z,95.14
2022-09-27T20:53:27.653Z,94.55
2022-09-27T20:58:59.261Z,94.58
2022-09-27T21:04:30.946Z,94.79
2022-09-27T21:10:02.718Z,95.04
2022-09-27T21:15:34.405Z,94.77
2022-09-27T21:21:06.343Z,94.12
2022-09-27T21:26:37.865Z,94.58
2022-09-27T21:32:09.627Z,93.91
2022-09-27T21:37:43.858Z,94.35
2022-09-27T21:43:13.029Z,95.08
2022-09-27T21:48:49.122Z,96.17
2022-09-27T21:54:20.806Z,97.94
2022-09-27T21:59:52.770Z,98.24
2022-09-27T22:05:24.770Z,98.49
2022-09-27T22:10:56.033Z,98.64
2022-09-27T22:16:27.787Z,99.19
2022-09-27T22:21:59.439Z,100.0
2022-09-27T22:27:31.413Z,100.0
2022-09-27T22:33:02.918Z,100.0
2022-09-27T22:38:34.627Z,100.0
2022-09-27T22:44:06.389Z,100.0
2022-09-27T22:49:44.555Z,100.0
2022-09-27T22:55:16.177Z,100.0
2022-09-27T23:00:47.995Z,99.74
2022-09-27T23:06:19.645Z,99.56
2022-09-27T23:11:51.353Z,100.0
2022-09-27T23:17:23.070Z,100.0
2022-09-27T23:22:54.802Z,100.0
2022-09-27T23:28:26.446Z,100.0
2022-09-27T23:33:58.342Z,100.0
2022-09-27T23:39:30.538Z,100.0
2022-09-27T23:45:01.694Z,100.0
2022-09-27T23:50:37.813Z,100.0
2022-09-27T23:56:09.501Z,100.0
